createdAt,value
2022-12-17T06:03:21.464Z,101990.91
2022-12-17T06:08:42.391Z,101997.25
2022-12-17T06:14:03.127Z,102007.09
2022-12-17T06:19:23.785Z,101996.91
2022-12-17T06:24:46.103Z,102007.09
2022-12-17T06:30:06.923Z,102015.09
2022-12-17T06:35:27.887Z,102008.53
2022-12-17T06:40:48.256Z,102025.88
2022-12-17T06:46:10.459Z,102021.56
2022-12-17T06:51:30.973Z,102039.56
2022-12-17T06:56:51.784Z,102047.72
2022-12-17T07:02:12.684Z,102064.56
2022-12-17T07:07:33.427Z,102072.75
2022-12-17T07:12:53.864Z,102075.69
2022-12-17T07:18:14.507Z,102084.56
2022-12-17T07:23:55.065Z,102083.91
2022-12-17T07:29:15.954Z,102095.13
2022-12-17T07:34:36.312Z,102098.03
2022-12-17T07:39:56.952Z,102106.78
2022-12-17T07:45:17.196Z,102108.13
2022-12-17T07:50:37.884Z,102116.50
2022-12-17T07:55:58.387Z,102121.25
2022-12-17T08:01:19.775Z,102142.13
2022-12-17T08:06:40.347Z,102141.50
2022-12-17T08:12:01.171Z,102146.88
2022-12-17T08:17:21.841Z,102169.53
2022-12-17T08:22:42.637Z,102180.16
2022-12-17T08:28:07.353Z,102183.75
2022-12-17T08:33:31.645Z,102194.91
2022-12-17T08:38:52.463Z,102186.66
2022-12-17T08:44:13.222Z,102187.41
2022-12-17T08:49:33.839Z,102183.91
2022-12-17T08:54:54.583Z,102192.72
2022-12-17T09:00:15.380Z,102195.50
2022-12-17T09:05:37.686Z,102206.22
2022-12-17T09:10:58.181Z,102205.72
2022-12-17T09:16:18.953Z,102226.97
2022-12-17T09:21:40.179Z,102222.22
2022-12-17T09:27:00.699Z,102221.00
2022-12-17T09:32:21.300Z,102224.97
2022-12-17T09:37:42.125Z,102229.56
2022-12-17T09:43:08.354Z,102225.69
2022-12-17T09:48:35.922Z,102231.69
2022-12-17T09:54:16.924Z,102218.81
2022-12-17T09:59:39.401Z,102232.59
2022-12-17T10:05:02.407Z,102229.31
2022-12-17T10:10:32.748Z,102220.03
2022-12-17T10:15:53.184Z,102220.97
2022-12-17T10:21:16.347Z,102230.38
2022-12-17T10:26:47.607Z,102236.22
2022-12-17T10:32:08.192Z,102252.13
2022-12-17T10:37:37.384Z,102260.34
2022-12-17T10:42:58.810Z,102257.22
2022-12-17T10:48:19.498Z,102259.28
2022-12-17T10:53:41.763Z,102255.78
2022-12-17T10:59:07.948Z,102265.59
2022-12-17T11:04:43.823Z,102256.84
2022-12-17T11:10:09.859Z,102265.09
2022-12-17T11:15:38.913Z,102269.16
2022-12-17T11:21:06.427Z,102269.53
2022-12-17T11:26:32.675Z,102271.00
2022-12-17T11:32:12.372Z,102273.19
2022-12-17T11:37:35.956Z,102279.47
2022-12-17T11:42:59.492Z,102279.88
2022-12-17T11:48:25.893Z,102284.00
2022-12-17T11:53:49.485Z,102284.34
2022-12-17T11:59:32.850Z,102290.53
2022-12-17T12:05:04.710Z,102290.81
2022-12-17T12:10:44.264Z,102288.72
2022-12-17T12:16:25.151Z,102297.22
2022-12-17T12:21:56.747Z,102296.63
2022-12-17T12:27:42.190Z,102297.59
2022-12-17T12:33:11.224Z,102305.53
2022-12-17T12:38:44.429Z,102314.72
2022-12-17T12:44:10.890Z,102330.69
2022-12-17T12:49:50.079Z,102331.66
2022-12-17T12:55:11.748Z,102340.47
2022-12-17T13:01:02.049Z,102348.03
2022-12-17T13:06:04.533Z,102349.94
2022-12-17T13:11:11.262Z,102353.28
2022-12-17T13:16:25.621Z,102345.88
2022-12-17T13:21:29.567Z,102359.41
2022-12-17T13:26:42.968Z,102366.13
2022-12-17T13:31:56.963Z,102374.78
2022-12-17T13:37:08.631Z,102378.06
2022-12-17T13:42:30.430Z,102386.53
2022-12-17T13:47:34.529Z,102381.81
2022-12-17T13:52:36.520Z,102381.91
2022-12-17T13:57:38.744Z,102386.69
2022-12-17T14:02:42.472Z,102393.34
2022-12-17T14:07:44.591Z,102401.19
2022-12-17T14:12:47.137Z,102417.38
2022-12-17T14:17:50.048Z,102420.41
2022-12-17T14:22:53.865Z,102425.94
2022-12-17T14:28:06.593Z,102425.56
2022-12-17T14:33:43.973Z,102430.13
2022-12-17T14:38:54.427Z,102426.81
2022-12-17T14:44:01.020Z,102436.28
2022-12-17T14:49:05.812Z,102438.78
2022-12-17T14:54:22.265Z,102440.84
2022-12-17T14:59:34.394Z,102433.81
2022-12-17T15:04:37.796Z,102444.97
2022-12-17T15:09:40.604Z,102450.19
2022-12-17T15:14:42.587Z,102448.84
2022-12-17T15:19:44.619Z,102456.59
2022-12-17T15:24:47.681Z,102457.94
2022-12-17T15:29:49.675Z,102468.19
2022-12-17T15:34:51.726Z,102483.00
2022-12-17T15:39:53.765Z,102479.38
2022-12-17T15:44:59.475Z,102487.78
2022-12-17T15:50:01.547Z,102505.53
2022-12-17T15:55:03.665Z,102493.22
2022-12-17T16:00:06.017Z,102490.53
2022-12-17T16:05:08.318Z,102501.91
2022-12-17T16:10:11.312Z,102513.50
2022-12-17T16:15:13.753Z,102514.19
2022-12-17T16:20:15.778Z,102519.19
2022-12-17T16:25:17.887Z,102510.09
2022-12-17T16:30:19.945Z,102515.53
2022-12-17T16:35:23.964Z,102516.59
2022-12-17T16:40:26.031Z,102508.91
2022-12-17T16:45:28.026Z,102513.94
2022-12-17T16:50:30.557Z,102519.84
2022-12-17T16:55:32.564Z,102533.69
2022-12-17T17:00:34.902Z,102535.31
2022-12-17T17:05:37.972Z,102532.34
2022-12-17T17:10:40.002Z,102534.16
2022-12-17T17:15:42.077Z,102534.56
2022-12-17T17:20:44.255Z,102538.09
2022-12-17T17:25:58.339Z,102549.72
2022-12-17T17:31:01.631Z,102551.78
2022-12-17T17:36:05.330Z,102565.69
2022-12-17T17:41:08.867Z,102571.84
2022-12-17T17:46:19.913Z,102574.34
2022-12-17T17:51:39.044Z,102567.25
2022-12-17T17:56:46.219Z,102571.09
2022-12-17T18:01:49.660Z,102572.69
2022-12-17T18:07:23.690Z,102578.19
2022-12-17T18:12:33.370Z,102585.00
2022-12-17T18:17:35.374Z,102594.22
2022-12-17T18:22:37.639Z,102606.88
2022-12-17T18:27:47.238Z,102602.78
2022-12-17T18:32:49.238Z,102606.69
2022-12-17T18:37:51.213Z,102601.94
2022-12-17T18:43:12.074Z,102607.66
2022-12-17T18:48:14.207Z,102612.81
2022-12-17T18:53:16.278Z,102608.97
2022-12-17T18:58:18.255Z,102621.03
2022-12-17T19:03:20.282Z,102631.72
2022-12-17T19:08:22.358Z,102639.75
2022-12-17T19:13:24.368Z,102644.75
2022-12-17T19:18:26.415Z,102651.06
2022-12-17T19:23:33.401Z,102654.94
2022-12-17T19:28:35.856Z,102649.94
2022-12-17T19:33:38.740Z,102656.25
2022-12-17T19:38:41.145Z,102664.31
2022-12-17T19:43:44.398Z,102665.56
2022-12-17T19:48:48.893Z,102667.41
2022-12-17T19:53:54.054Z,102677.69
2022-12-17T19:59:08.899Z,102681.16
2022-12-17T20:09:14.064Z,102682.78
2022-12-17T20:14:23.815Z,102693.94
2022-12-17T20:19:33.274Z,102707.81
2022-12-17T20:24:37.303Z,102707.59
2022-12-17T20:29:39.356Z,102712.38
2022-12-17T20:34:41.383Z,102709.50
2022-12-17T20:39:43.433Z,102717.41
2022-12-17T20:44:50.040Z,102723.56
2022-12-17T20:49:55.265Z,102726.78
2022-12-17T20:54:57.334Z,102729.50
2022-12-17T20:59:59.346Z,102731.66
2022-12-17T21:05:01.390Z,102728.41
2022-12-17T21:10:03.604Z,102730.66
2022-12-17T21:15:05.787Z,102735.72
2022-12-17T21:20:08.336Z,102732.56
2022-12-17T21:25:13.630Z,102734.72
2022-12-17T21:30:15.702Z,102744.06
2022-12-17T21:35:17.832Z,102736.09
2022-12-17T21:40:21.924Z,102742.94
2022-12-17T21:45:24.764Z,102751.25
2022-12-17T21:50:27.017Z,102762.34
2022-12-17T21:55:29.060Z,102753.28
2022-12-17T22:00:31.108Z,102774.94
2022-12-17T22:05:35.328Z,102770.22
2022-12-17T22:10:40.111Z,102774.06
2022-12-17T22:15:48.215Z,102779.63
2022-12-17T22:21:00.411Z,102778.84
2022-12-17T22:26:02.433Z,102794.94
2022-12-17T22:31:23.925Z,102794.88
2022-12-17T22:39:20.272Z,102797.22
2022-12-17T22:44:38.566Z,102796.59
